sensor_id;sensor_type;location;lat;lon;timestamp;pressure;altitude;pressure_sealevel;temperature;humidity
9421;BME280;4749;51.398;5.466;2023-04-04T00:00:36;102736.06;;;3.44;100.00
9421;BME280;4749;51.398;5.466;2023-04-04T00:03:05;102735.81;;;3.39;100.00
9421;BME280;4749;51.398;5.466;2023-04-04T00:05:32;102733.81;;;3.35;100.00
9421;BME280;4749;51.398;5.466;2023-04-04T00:08:02;102738.81;;;3.32;100.00
9421;BME280;4749;51.398;5.466;2023-04-04T00:10:31;102731.63;;;3.28;100.00
9421;BME280;4749;51.398;5.466;2023-04-04T00:12:58;102728.84;;;3.25;100.00
9421;BME280;4749;51.398;5.466;2023-04-04T00:15:26;102731.25;;;3.22;100.00
9421;BME280;4749;51.398;5.466;2023-04-04T00:17:53;102731.19;;;3.20;100.00
9421;BME280;4749;51.398;5.466;2023-04-04T00:20:20;102731.84;;;3.18;100.00
9421;BME280;4749;51.398;5.466;2023-04-04T00:22:47;102733.47;;;3.16;100.00
9421;BME280;4749;51.398;5.466;2023-04-04T00:25:14;102733.47;;;3.16;100.00
9421;BME280;4749;51.398;5.466;2023-04-04T00:27:42;102732.41;;;3.12;100.00
9421;BME280;4749;51.398;5.466;2023-04-04T00:30:10;102734.19;;;3.13;100.00
9421;BME280;4749;51.398;5.466;2023-04-04T00:32:38;102742.88;;;3.14;100.00
9421;BME280;4749;51.398;5.466;2023-04-04T00:35:06;102741.09;;;3.13;100.00
9421;BME280;4749;51.398;5.466;2023-04-04T00:37:33;102746.28;;;3.13;100.00
9421;BME280;4749;51.398;5.466;2023-04-04T00:40:01;102741.91;;;3.12;100.00
9421;BME280;4749;51.398;5.466;2023-04-04T00:42:30;102744.50;;;3.12;100.00
9421;BME280;4749;51.398;5.466;2023-04-04T00:44:59;102742.78;;;3.12;100.00
9421;BME280;4749;51.398;5.466;2023-04-04T00:47:29;102747.88;;;3.10;100.00
9421;BME280;4749;51.398;5.466;2023-04-04T00:50:00;102748.59;;;3.08;100.00
9421;BME280;4749;51.398;5.466;2023-04-04T00:52:28;102746.78;;;3.07;100.00
9421;BME280;4749;51.398;5.466;2023-04-04T00:54:55;102747.50;;;3.04;100.00
9421;BME280;4749;51.398;5.466;2023-04-04T00:57:23;102749.19;;;3.04;100.00
9421;BME280;4749;51.398;5.466;2023-04-04T00:59:50;102754.28;;;3.02;100.00
9421;BME280;4749;51.398;5.466;2023-04-04T01:02:17;102750.69;;;3.00;100.00
9421;BME280;4749;51.398;5.466;2023-04-04T01:04:44;102751.50;;;2.99;100.00
9421;BME280;4749;51.398;5.466;2023-04-04T01:07:18;102752.22;;;2.97;100.00
9421;BME280;4749;51.398;5.466;2023-04-04T01:09:52;102747.69;;;2.94;100.00
9421;BME280;4749;51.398;5.466;2023-04-04T01:12:22;102748.50;;;2.93;100.00
9421;BME280;4749;51.398;5.466;2023-04-04T01:14:50;102748.31;;;2.90;100.00
9421;BME280;4749;51.398;5.466;2023-04-04T01:17:18;102736.94;;;2.88;100.00
9421;BME280;4749;51.398;5.466;2023-04-04T01:19:56;102746.34;;;2.86;100.00
9421;BME280;4749;51.398;5.466;2023-04-04T01:22:27;102742.63;;;2.82;100.00
9421;BME280;4749;51.398;5.466;2023-04-04T01:24:58;102738.94;;;2.79;100.00
9421;BME280;4749;51.398;5.466;2023-04-04T01:27:29;102740.53;;;2.77;100.00
9421;BME280;4749;51.398;5.466;2023-04-04T01:30:01;102740.44;;;2.75;100.00
9421;BME280;4749;51.398;5.466;2023-04-04T01:32:51;102728.94;;;2.72;100.00
9421;BME280;4749;51.398;5.466;2023-04-04T01:35:42;102718.34;;;2.69;100.00
9421;BME280;4749;51.398;5.466;2023-04-04T01:41:12;102716.97;;;2.61;100.00
9421;BME280;4749;51.398;5.466;2023-04-04T01:43:44;102716.75;;;2.58;100.00
9421;BME280;4749;51.398;5.466;2023-04-04T01:46:12;102713.97;;;2.54;100.00
9421;BME280;4749;51.398;5.466;2023-04-04T01:48:45;102720.78;;;2.52;100.00
9421;BME280;4749;51.398;5.466;2023-04-04T01:51:22;102713.56;;;2.48;100.00
9421;BME280;4749;51.398;5.466;2023-04-04T01:53:49;102723.88;;;2.47;100.00
9421;BME280;4749;51.398;5.466;2023-04-04T01:56:18;102711.59;;;2.44;100.00
9421;BME280;4749;51.398;5.466;2023-04-04T01:58:45;102714.78;;;2.40;100.00
9421;BME280;4749;51.398;5.466;2023-04-04T02:01:14;102711.09;;;2.37;100.00
9421;BME280;4749;51.398;5.466;2023-04-04T02:03:44;102714.16;;;2.31;100.00
9421;BME280;4749;51.398;5.466;2023-04-04T02:06:14;102710.25;;;2.24;100.00
9421;BME280;4749;51.398;5.466;2023-04-04T02:08:42;102711.56;;;2.18;100.00
9421;BME280;4749;51.398;5.466;2023-04-04T02:11:10;102707.88;;;2.14;100.00
9421;BME280;4749;51.398;5.466;2023-04-04T02:13:40;102711.84;;;2.09;100.00
9421;BME280;4749;51.398;5.466;2023-04-04T02:16:12;102708.06;;;2.04;100.00
9421;BME280;4749;51.398;5.466;2023-04-04T02:18:40;102711.13;;;1.98;100.00
9421;BME280;4749;51.398;5.466;2023-04-04T02:21:10;102702.94;;;1.92;100.00
9421;BME280;4749;51.398;5.466;2023-04-04T02:23:39;102717.41;;;1.89;100.00
9421;BME280;4749;51.398;5.466;2023-04-04T02:26:08;102719.91;;;1.87;100.00
9421;BME280;4749;51.398;5.466;2023-04-04T02:28:36;102716.97;;;1.83;100.00
9421;BME280;4749;51.398;5.466;2023-04-04T02:31:06;102718.56;;;1.81;100.00
9421;BME280;4749;51.398;5.466;2023-04-04T02:33:36;102714.09;;;1.78;100.00
9421;BME280;4749;51.398;5.466;2023-04-04T02:36:04;102710.38;;;1.75;100.00
9421;BME280;4749;51.398;5.466;2023-04-04T02:38:42;102705.78;;;1.71;100.00
9421;BME280;4749;51.398;5.466;2023-04-04T02:41:10;102710.19;;;1.72;100.00
9421;BME280;4749;51.398;5.466;2023-04-04T02:43:37;102706.59;;;1.69;100.00
9421;BME280;4749;51.398;5.466;2023-04-04T02:46:04;102713.34;;;1.67;100.00
9421;BME280;4749;51.398;5.466;2023-04-04T02:48:46;102714.22;;;1.68;100.00
9421;BME280;4749;51.398;5.466;2023-04-04T02:51:13;102711.44;;;1.65;100.00
9421;BME280;4749;51.398;5.466;2023-04-04T02:53:40;102715.03;;;1.67;100.00
9421;BME280;4749;51.398;5.466;2023-04-04T02:56:08;102717.53;;;1.65;100.00
9421;BME280;4749;51.398;5.466;2023-04-04T02:58:35;102718.44;;;1.66;100.00
9421;BME280;4749;51.398;5.466;2023-04-04T03:01:02;59421.81;;;-144.16;100.00
9421;BME280;4749;51.398;5.466;2023-04-04T03:03:30;59421.81;;;-144.16;100.00
9421;BME280;4749;51.398;5.466;2023-04-04T03:05:58;59421.81;;;-144.16;100.00
9421;BME280;4749;51.398;5.466;2023-04-04T03:08:26;59421.81;;;-144.16;100.00
9421;BME280;4749;51.398;5.466;2023-04-04T03:10:54;59421.81;;;-144.16;100.00
9421;BME280;4749;51.398;5.466;2023-04-04T03:13:21;59421.81;;;-144.16;100.00
9421;BME280;4749;51.398;5.466;2023-04-04T03:15:48;59421.81;;;-144.16;100.00
9421;BME280;4749;51.398;5.466;2023-04-04T03:18:16;59421.81;;;-144.16;100.00
9421;BME280;4749;51.398;5.466;2023-04-04T03:20:44;59421.81;;;-144.16;100.00
9421;BME280;4749;51.398;5.466;2023-04-04T03:23:11;59421.81;;;-144.16;100.00
9421;BME280;4749;51.398;5.466;2023-04-04T03:25:38;59421.81;;;-144.16;100.00
9421;BME280;4749;51.398;5.466;2023-04-04T03:28:09;59421.81;;;-144.16;100.00
9421;BME280;4749;51.398;5.466;2023-04-04T03:30:37;59421.81;;;-144.16;100.00
9421;BME280;4749;51.398;5.466;2023-04-04T03:33:05;59421.81;;;-144.16;100.00
9421;BME280;4749;51.398;5.466;2023-04-04T03:35:41;59421.81;;;-144.16;100.00
9421;BME280;4749;51.398;5.466;2023-04-04T03:38:08;59421.81;;;-144.16;100.00
9421;BME280;4749;51.398;5.466;2023-04-04T03:40:36;59421.81;;;-144.16;100.00
9421;BME280;4749;51.398;5.466;2023-04-04T03:43:06;59421.81;;;-144.16;100.00
9421;BME280;4749;51.398;5.466;2023-04-04T03:45:34;59421.81;;;-144.16;100.00
9421;BME280;4749;51.398;5.466;2023-04-04T03:48:04;59421.81;;;-144.16;100.00
9421;BME280;4749;51.398;5.466;2023-04-04T03:50:31;59421.81;;;-144.16;100.00
9421;BME280;4749;51.398;5.466;2023-04-04T03:52:58;59421.81;;;-144.16;100.00
9421;BME280;4749;51.398;5.466;2023-04-04T03:55:25;59421.81;;;-144.16;100.00
9421;BME280;4749;51.398;5.466;2023-04-04T03:57:53;59421.81;;;-144.16;100.00
9421;BME280;4749;51.398;5.466;2023-04-04T04:00:20;59421.81;;;-144.16;100.00
9421;BME280;4749;51.398;5.466;2023-04-04T04:02:47;59421.81;;;-144.16;100.00
9421;BME280;4749;51.398;5.466;2023-04-04T04:05:14;59421.81;;;-144.16;100.00
9421;BME280;4749;51.398;5.466;2023-04-04T04:07:42;59421.81;;;-144.16;100.00
9421;BME280;4749;51.398;5.466;2023-04-04T04:10:11;59421.81;;;-144.16;100.00
9421;BME280;4749;51.398;5.466;2023-04-04T04:12:40;59421.81;;;-144.16;100.00
9421;BME280;4749;51.398;5.466;2023-04-04T04:15:08;59421.81;;;-144.16;100.00
9421;BME280;4749;51.398;5.466;2023-04-04T04:17:39;59421.81;;;-144.16;100.00
9421;BME280;4749;51.398;5.466;2023-04-04T04:20:08;59421.81;;;-144.16;100.00
9421;BME280;4749;51.398;5.466;2023-04-04T04:22:35;59421.81;;;-144.16;100.00
9421;BME280;4749;51.398;5.466;2023-04-04T04:25:03;59421.81;;;-144.16;100.00
9421;BME280;4749;51.398;5.466;2023-04-04T04:27:30;59421.81;;;-144.16;100.00
9421;BME280;4749;51.398;5.466;2023-04-04T04:29:57;59421.81;;;-144.16;100.00
9421;BME280;4749;51.398;5.466;2023-04-04T04:32:24;59421.81;;;-144.16;100.00
9421;BME280;4749;51.398;5.466;2023-04-04T04:34:52;59421.81;;;-144.16;100.00
9421;BME280;4749;51.398;5.466;2023-04-04T04:37:19;59421.81;;;-144.16;100.00
9421;BME280;4749;51.398;5.466;2023-04-04T04:39:46;59421.81;;;-144.16;100.00
9421;BME280;4749;51.398;5.466;2023-04-04T04:42:13;59421.81;;;-144.16;100.00
9421;BME280;4749;51.398;5.466;2023-04-04T04:44:41;59421.81;;;-144.16;100.00
9421;BME280;4749;51.398;5.466;2023-04-04T04:47:08;59421.81;;;-144.16;100.00
9421;BME280;4749;51.398;5.466;2023-04-04T04:49:35;59421.81;;;-144.16;100.00
9421;BME280;4749;51.398;5.466;2023-04-04T04:52:02;59421.81;;;-144.16;100.00
9421;BME280;4749;51.398;5.466;2023-04-04T04:54:29;59421.81;;;-144.16;100.00
9421;BME280;4749;51.398;5.466;2023-04-04T04:56:56;59421.81;;;-144.16;100.00
9421;BME280;4749;51.398;5.466;2023-04-04T04:59:23;59421.81;;;-144.16;100.00
9421;BME280;4749;51.398;5.466;2023-04-04T05:01:51;59421.81;;;-144.16;100.00
9421;BME280;4749;51.398;5.466;2023-04-04T05:04:18;59421.81;;;-144.16;100.00
9421;BME280;4749;51.398;5.466;2023-04-04T05:06:45;59421.81;;;-144.16;100.00
9421;BME280;4749;51.398;5.466;2023-04-04T05:09:12;59421.81;;;-144.16;100.00
9421;BME280;4749;51.398;5.466;2023-04-04T05:11:40;59421.81;;;-144.16;100.00
9421;BME280;4749;51.398;5.466;2023-04-04T05:14:07;59421.81;;;-144.16;100.00
9421;BME280;4749;51.398;5.466;2023-04-04T05:16:34;59421.81;;;-144.16;100.00
9421;BME280;4749;51.398;5.466;2023-04-04T05:19:01;59421.81;;;-144.16;100.00
9421;BME280;4749;51.398;5.466;2023-04-04T05:21:29;59421.81;;;-144.16;100.00
9421;BME280;4749;51.398;5.466;2023-04-04T05:23:56;59421.81;;;-144.16;100.00
9421;BME280;4749;51.398;5.466;2023-04-04T05:26:24;59421.81;;;-144.16;100.00
9421;BME280;4749;51.398;5.466;2023-04-04T05:28:51;59421.81;;;-144.16;100.00
9421;BME280;4749;51.398;5.466;2023-04-04T05:31:18;59421.81;;;-144.16;100.00
9421;BME280;4749;51.398;5.466;2023-04-04T05:33:45;59421.81;;;-144.16;100.00
9421;BME280;4749;51.398;5.466;2023-04-04T05:36:13;59421.81;;;-144.16;100.00
9421;BME280;4749;51.398;5.466;2023-04-04T05:38:40;59421.81;;;-144.16;100.00
9421;BME280;4749;51.398;5.466;2023-04-04T05:41:07;59421.81;;;-144.16;100.00
9421;BME280;4749;51.398;5.466;2023-04-04T05:43:35;59421.81;;;-144.16;100.00
9421;BME280;4749;51.398;5.466;2023-04-04T05:46:02;59421.81;;;-144.16;100.00
9421;BME280;4749;51.398;5.466;2023-04-04T05:48:29;59421.81;;;-144.16;100.00
9421;BME280;4749;51.398;5.466;2023-04-04T05:50:56;59421.81;;;-144.16;100.00
9421;BME280;4749;51.398;5.466;2023-04-04T05:53:23;59421.81;;;-144.16;100.00
9421;BME280;4749;51.398;5.466;2023-04-04T05:55:52;59421.81;;;-144.16;100.00
9421;BME280;4749;51.398;5.466;2023-04-04T05:58:19;59421.81;;;-144.16;100.00
9421;BME280;4749;51.398;5.466;2023-04-04T06:00:46;59421.81;;;-144.16;100.00
9421;BME280;4749;51.398;5.466;2023-04-04T06:03:13;59421.81;;;-144.16;100.00
9421;BME280;4749;51.398;5.466;2023-04-04T06:05:42;59421.81;;;-144.16;100.00
9421;BME280;4749;51.398;5.466;2023-04-04T06:08:10;59421.81;;;-144.16;100.00
9421;BME280;4749;51.398;5.466;2023-04-04T06:10:37;59421.81;;;-144.16;100.00
9421;BME280;4749;51.398;5.466;2023-04-04T06:13:04;59421.81;;;-144.16;100.00
9421;BME280;4749;51.398;5.466;2023-04-04T06:15:31;59421.81;;;-144.16;100.00
9421;BME280;4749;51.398;5.466;2023-04-04T06:17:58;59421.81;;;-144.16;100.00
9421;BME280;4749;51.398;5.466;2023-04-04T06:20:25;59421.81;;;-144.16;100.00
9421;BME280;4749;51.398;5.466;2023-04-04T06:22:53;59421.81;;;-144.16;100.00
9421;BME280;4749;51.398;5.466;2023-04-04T06:25:20;59421.81;;;-144.16;100.00
9421;BME280;4749;51.398;5.466;2023-04-04T06:27:47;59421.81;;;-144.16;100.00
9421;BME280;4749;51.398;5.466;2023-04-04T06:30:14;59421.81;;;-144.16;100.00
9421;BME280;4749;51.398;5.466;2023-04-04T06:32:42;59421.81;;;-144.16;100.00
9421;BME280;4749;51.398;5.466;2023-04-04T06:35:11;59421.81;;;-144.16;100.00
9421;BME280;4749;51.398;5.466;2023-04-04T06:37:38;59421.81;;;-144.16;100.00
9421;BME280;4749;51.398;5.466;2023-04-04T06:40:06;59421.81;;;-144.16;100.00
9421;BME280;4749;51.398;5.466;2023-04-04T06:42:34;59421.81;;;-144.16;100.00
9421;BME280;4749;51.398;5.466;2023-04-04T06:45:01;59421.81;;;-144.16;100.00
9421;BME280;4749;51.398;5.466;2023-04-04T06:47:28;59421.81;;;-144.16;100.00
9421;BME280;4749;51.398;5.466;2023-04-04T06:49:56;59421.81;;;-144.16;100.00
9421;BME280;4749;51.398;5.466;2023-04-04T06:52:24;59421.81;;;-144.16;100.00
9421;BME280;4749;51.398;5.466;2023-04-04T06:54:51;59421.81;;;-144.16;100.00
9421;BME280;4749;51.398;5.466;2023-04-04T06:57:18;59421.81;;;-144.16;100.00
9421;BME280;4749;51.398;5.466;2023-04-04T06:59:45;59421.81;;;-144.16;100.00
9421;BME280;4749;51.398;5.466;2023-04-04T07:02:12;59421.81;;;-144.16;100.00
9421;BME280;4749;51.398;5.466;2023-04-04T07:04:39;59421.81;;;-144.16;100.00
9421;BME280;4749;51.398;5.466;2023-04-04T07:07:07;59421.81;;;-144.16;100.00
9421;BME280;4749;51.398;5.466;2023-04-04T07:09:34;59421.81;;;-144.16;100.00
9421;BME280;4749;51.398;5.466;2023-04-04T07:12:02;59421.81;;;-144.16;100.00
9421;BME280;4749;51.398;5.466;2023-04-04T07:14:29;59421.81;;;-144.16;100.00
9421;BME280;4749;51.398;5.466;2023-04-04T07:16:57;59421.81;;;-144.16;100.00
9421;BME280;4749;51.398;5.466;2023-04-04T07:19:24;59421.81;;;-144.16;100.00
9421;BME280;4749;51.398;5.466;2023-04-04T07:21:55;59421.81;;;-144.16;100.00
9421;BME280;4749;51.398;5.466;2023-04-04T07:24:23;59421.81;;;-144.16;100.00
9421;BME280;4749;51.398;5.466;2023-04-04T07:26:50;59421.81;;;-144.16;100.00
9421;BME280;4749;51.398;5.466;2023-04-04T07:29:17;59421.81;;;-144.16;100.00
9421;BME280;4749;51.398;5.466;2023-04-04T07:31:44;59421.81;;;-144.16;100.00
9421;BME280;4749;51.398;5.466;2023-04-04T07:34:11;59421.81;;;-144.16;100.00
9421;BME280;4749;51.398;5.466;2023-04-04T07:36:38;59421.81;;;-144.16;100.00
9421;BME280;4749;51.398;5.466;2023-04-04T07:39:06;59421.81;;;-144.16;100.00
9421;BME280;4749;51.398;5.466;2023-04-04T07:41:33;59421.81;;;-144.16;100.00
9421;BME280;4749;51.398;5.466;2023-04-04T07:44:02;59421.81;;;-144.16;100.00
9421;BME280;4749;51.398;5.466;2023-04-04T07:46:29;59421.81;;;-144.16;100.00
9421;BME280;4749;51.398;5.466;2023-04-04T07:48:57;59421.81;;;-144.16;100.00
9421;BME280;4749;51.398;5.466;2023-04-04T07:51:25;59421.81;;;-144.16;100.00
9421;BME280;4749;51.398;5.466;2023-04-04T07:53:56;59421.81;;;-144.16;100.00
9421;BME280;4749;51.398;5.466;2023-04-04T07:56:24;59421.81;;;-144.16;100.00
9421;BME280;4749;51.398;5.466;2023-04-04T07:58:52;59421.81;;;-144.16;100.00
9421;BME280;4749;51.398;5.466;2023-04-04T08:01:19;59421.81;;;-144.16;100.00
9421;BME280;4749;51.398;5.466;2023-04-04T08:03:46;59421.81;;;-144.16;100.00
9421;BME280;4749;51.398;5.466;2023-04-04T08:06:16;59421.81;;;-144.16;100.00
9421;BME280;4749;51.398;5.466;2023-04-04T08:08:43;59421.81;;;-144.16;100.00
9421;BME280;4749;51.398;5.466;2023-04-04T08:11:13;59421.81;;;-144.16;100.00
9421;BME280;4749;51.398;5.466;2023-04-04T08:13:40;59421.81;;;-144.16;100.00
9421;BME280;4749;51.398;5.466;2023-04-04T08:16:07;59421.81;;;-144.16;100.00
9421;BME280;4749;51.398;5.466;2023-04-04T08:18:34;59421.81;;;-144.16;100.00
9421;BME280;4749;51.398;5.466;2023-04-04T08:21:02;59421.81;;;-144.16;100.00
9421;BME280;4749;51.398;5.466;2023-04-04T08:23:29;59421.81;;;-144.16;100.00
9421;BME280;4749;51.398;5.466;2023-04-04T08:25:56;59421.81;;;-144.16;100.00
9421;BME280;4749;51.398;5.466;2023-04-04T08:28:27;59421.81;;;-144.16;100.00
9421;BME280;4749;51.398;5.466;2023-04-04T08:30:54;59421.81;;;-144.16;100.00
9421;BME280;4749;51.398;5.466;2023-04-04T08:33:22;59421.81;;;-144.16;100.00
9421;BME280;4749;51.398;5.466;2023-04-04T08:36:00;59421.81;;;-144.16;100.00
9421;BME280;4749;51.398;5.466;2023-04-04T08:38:27;59421.81;;;-144.16;100.00
9421;BME280;4749;51.398;5.466;2023-04-04T08:40:54;59421.81;;;-144.16;100.00
9421;BME280;4749;51.398;5.466;2023-04-04T08:43:23;59421.81;;;-144.16;100.00
9421;BME280;4749;51.398;5.466;2023-04-04T08:45:52;59421.81;;;-144.16;100.00
9421;BME280;4749;51.398;5.466;2023-04-04T08:48:20;59421.81;;;-144.16;100.00
9421;BME280;4749;51.398;5.466;2023-04-04T08:50:50;59421.81;;;-144.16;100.00
9421;BME280;4749;51.398;5.466;2023-04-04T08:53:17;59421.81;;;-144.16;100.00
9421;BME280;4749;51.398;5.466;2023-04-04T08:55:45;59421.81;;;-144.16;100.00
9421;BME280;4749;51.398;5.466;2023-04-04T08:58:12;59421.81;;;-144.16;100.00
9421;BME280;4749;51.398;5.466;2023-04-04T09:00:40;59421.81;;;-144.16;100.00
9421;BME280;4749;51.398;5.466;2023-04-04T09:03:25;59421.81;;;-144.16;100.00
9421;BME280;4749;51.398;5.466;2023-04-04T09:05:54;59421.81;;;-144.16;100.00
9421;BME280;4749;51.398;5.466;2023-04-04T09:08:22;59421.81;;;-144.16;100.00
9421;BME280;4749;51.398;5.466;2023-04-04T09:10:53;59421.81;;;-144.16;100.00
9421;BME280;4749;51.398;5.466;2023-04-04T09:13:20;59421.81;;;-144.16;100.00
9421;BME280;4749;51.398;5.466;2023-04-04T09:15:53;59421.81;;;-144.16;100.00
9421;BME280;4749;51.398;5.466;2023-04-04T09:18:20;59421.81;;;-144.16;100.00
9421;BME280;4749;51.398;5.466;2023-04-04T09:20:48;59421.81;;;-144.16;100.00
9421;BME280;4749;51.398;5.466;2023-04-04T09:23:17;59421.81;;;-144.16;100.00
9421;BME280;4749;51.398;5.466;2023-04-04T09:25:52;59421.81;;;-144.16;100.00
9421;BME280;4749;51.398;5.466;2023-04-04T09:28:29;59421.81;;;-144.16;100.00
9421;BME280;4749;51.398;5.466;2023-04-04T09:31:00;59421.81;;;-144.16;100.00
9421;BME280;4749;51.398;5.466;2023-04-04T09:33:30;59421.81;;;-144.16;100.00
9421;BME280;4749;51.398;5.466;2023-04-04T09:36:11;59421.81;;;-144.16;100.00
9421;BME280;4749;51.398;5.466;2023-04-04T09:38:40;59421.81;;;-144.16;100.00
9421;BME280;4749;51.398;5.466;2023-04-04T09:41:15;59421.81;;;-144.16;100.00
9421;BME280;4749;51.398;5.466;2023-04-04T09:43:44;59421.81;;;-144.16;100.00
9421;BME280;4749;51.398;5.466;2023-04-04T09:46:12;59421.81;;;-144.16;100.00
9421;BME280;4749;51.398;5.466;2023-04-04T09:48:39;59421.81;;;-144.16;100.00
9421;BME280;4749;51.398;5.466;2023-04-04T09:51:11;59421.81;;;-144.16;100.00
9421;BME280;4749;51.398;5.466;2023-04-04T09:53:38;59421.81;;;-144.16;100.00
9421;BME280;4749;51.398;5.466;2023-04-04T09:56:08;59421.81;;;-144.16;100.00
9421;BME280;4749;51.398;5.466;2023-04-04T09:58:35;59421.81;;;-144.16;100.00
9421;BME280;4749;51.398;5.466;2023-04-04T10:01:18;59421.81;;;-144.16;100.00
9421;BME280;4749;51.398;5.466;2023-04-04T10:03:53;59421.81;;;-144.16;100.00
9421;BME280;4749;51.398;5.466;2023-04-04T10:06:21;59421.81;;;-144.16;100.00
9421;BME280;4749;51.398;5.466;2023-04-04T10:08:48;59421.81;;;-144.16;100.00
9421;BME280;4749;51.398;5.466;2023-04-04T10:11:30;59421.81;;;-144.16;100.00
9421;BME280;4749;51.398;5.466;2023-04-04T10:13:59;59421.81;;;-144.16;100.00
9421;BME280;4749;51.398;5.466;2023-04-04T10:16:32;59421.81;;;-144.16;100.00
9421;BME280;4749;51.398;5.466;2023-04-04T10:19:04;59421.81;;;-144.16;100.00
9421;BME280;4749;51.398;5.466;2023-04-04T10:21:34;59421.81;;;-144.16;100.00
9421;BME280;4749;51.398;5.466;2023-04-04T10:24:02;59421.81;;;-144.16;100.00
9421;BME280;4749;51.398;5.466;2023-04-04T10:26:35;59421.81;;;-144.16;100.00
9421;BME280;4749;51.398;5.466;2023-04-04T10:29:03;59421.81;;;-144.16;100.00
9421;BME280;4749;51.398;5.466;2023-04-04T10:31:32;59421.81;;;-144.16;100.00
9421;BME280;4749;51.398;5.466;2023-04-04T10:34:40;59421.81;;;-144.16;100.00
9421;BME280;4749;51.398;5.466;2023-04-04T10:37:17;59421.81;;;-144.16;100.00
9421;BME280;4749;51.398;5.466;2023-04-04T10:40:13;59421.81;;;-144.16;100.00
9421;BME280;4749;51.398;5.466;2023-04-04T10:42:46;59421.81;;;-144.16;100.00
9421;BME280;4749;51.398;5.466;2023-04-04T10:45:15;59421.81;;;-144.16;100.00
9421;BME280;4749;51.398;5.466;2023-04-04T10:47:48;59421.81;;;-144.16;100.00
9421;BME280;4749;51.398;5.466;2023-04-04T10:50:16;59421.81;;;-144.16;100.00
9421;BME280;4749;51.398;5.466;2023-04-04T10:52:45;59421.81;;;-144.16;100.00
9421;BME280;4749;51.398;5.466;2023-04-04T10:55:14;59421.81;;;-144.16;100.00
9421;BME280;4749;51.398;5.466;2023-04-04T10:57:45;59421.81;;;-144.16;100.00
9421;BME280;4749;51.398;5.466;2023-04-04T11:00:15;59421.81;;;-144.16;100.00
9421;BME280;4749;51.398;5.466;2023-04-04T11:08:04;59421.81;;;-144.16;100.00
9421;BME280;4749;51.398;5.466;2023-04-04T11:10:40;59421.81;;;-144.16;100.00
9421;BME280;4749;51.398;5.466;2023-04-04T11:13:25;59421.81;;;-144.16;100.00
9421;BME280;4749;51.398;5.466;2023-04-04T11:16:06;59421.81;;;-144.16;100.00
9421;BME280;4749;51.398;5.466;2023-04-04T11:21:30;59421.81;;;-144.16;100.00
9421;BME280;4749;51.398;5.466;2023-04-04T11:28:56;59421.81;;;-144.16;100.00
9421;BME280;4749;51.398;5.466;2023-04-04T11:34:06;59421.81;;;-144.16;100.00
9421;BME280;4749;51.398;5.466;2023-04-04T11:39:16;59421.81;;;-144.16;100.00
9421;BME280;4749;51.398;5.466;2023-04-04T11:44:31;59421.81;;;-144.16;100.00
9421;BME280;4749;51.398;5.466;2023-04-04T11:47:10;59421.81;;;-144.16;100.00
9421;BME280;4749;51.398;5.466;2023-04-04T11:49:40;59421.81;;;-144.16;100.00
9421;BME280;4749;51.398;5.466;2023-04-04T11:52:13;59421.81;;;-144.16;100.00
9421;BME280;4749;51.398;5.466;2023-04-04T11:54:43;59421.81;;;-144.16;100.00
9421;BME280;4749;51.398;5.466;2023-04-04T11:57:12;59421.81;;;-144.16;100.00
9421;BME280;4749;51.398;5.466;2023-04-04T11:59:45;59421.81;;;-144.16;100.00
9421;BME280;4749;51.398;5.466;2023-04-04T12:02:23;59421.81;;;-144.16;100.00
9421;BME280;4749;51.398;5.466;2023-04-04T12:04:53;59421.81;;;-144.16;100.00
9421;BME280;4749;51.398;5.466;2023-04-04T12:07:22;59421.81;;;-144.16;100.00
9421;BME280;4749;51.398;5.466;2023-04-04T12:09:52;59421.81;;;-144.16;100.00
9421;BME280;4749;51.398;5.466;2023-04-04T12:12:23;59421.81;;;-144.16;100.00
9421;BME280;4749;51.398;5.466;2023-04-04T12:14:53;59421.81;;;-144.16;100.00
9421;BME280;4749;51.398;5.466;2023-04-04T12:17:40;59421.81;;;-144.16;100.00
9421;BME280;4749;51.398;5.466;2023-04-04T12:20:12;59421.81;;;-144.16;100.00
9421;BME280;4749;51.398;5.466;2023-04-04T12:22:41;59421.81;;;-144.16;100.00
9421;BME280;4749;51.398;5.466;2023-04-04T12:25:09;59421.81;;;-144.16;100.00
9421;BME280;4749;51.398;5.466;2023-04-04T12:27:36;59421.81;;;-144.16;100.00
9421;BME280;4749;51.398;5.466;2023-04-04T12:30:04;59421.81;;;-144.16;100.00
9421;BME280;4749;51.398;5.466;2023-04-04T12:32:33;59421.81;;;-144.16;100.00
9421;BME280;4749;51.398;5.466;2023-04-04T12:35:01;59421.81;;;-144.16;100.00
9421;BME280;4749;51.398;5.466;2023-04-04T12:37:29;59421.81;;;-144.16;100.00
9421;BME280;4749;51.398;5.466;2023-04-04T12:39:57;59421.81;;;-144.16;100.00
9421;BME280;4749;51.398;5.466;2023-04-04T12:42:24;59421.81;;;-144.16;100.00
9421;BME280;4749;51.398;5.466;2023-04-04T12:44:52;59421.81;;;-144.16;100.00
9421;BME280;4749;51.398;5.466;2023-04-04T12:47:20;59421.81;;;-144.16;100.00
9421;BME280;4749;51.398;5.466;2023-04-04T12:49:52;59421.81;;;-144.16;100.00
9421;BME280;4749;51.398;5.466;2023-04-04T12:52:26;59421.81;;;-144.16;100.00
9421;BME280;4749;51.398;5.466;2023-04-04T12:54:58;59421.81;;;-144.16;100.00
9421;BME280;4749;51.398;5.466;2023-04-04T12:57:37;59421.81;;;-144.16;100.00
9421;BME280;4749;51.398;5.466;2023-04-04T13:00:06;59421.81;;;-144.16;100.00
9421;BME280;4749;51.398;5.466;2023-04-04T13:02:37;59421.81;;;-144.16;100.00
9421;BME280;4749;51.398;5.466;2023-04-04T13:05:05;59421.81;;;-144.16;100.00
9421;BME280;4749;51.398;5.466;2023-04-04T13:07:37;59421.81;;;-144.16;100.00
9421;BME280;4749;51.398;5.466;2023-04-04T13:10:13;59421.81;;;-144.16;100.00
9421;BME280;4749;51.398;5.466;2023-04-04T13:12:59;59421.81;;;-144.16;100.00
9421;BME280;4749;51.398;5.466;2023-04-04T13:15:49;59421.81;;;-144.16;100.00
9421;BME280;4749;51.398;5.466;2023-04-04T13:18:21;59421.81;;;-144.16;100.00
9421;BME280;4749;51.398;5.466;2023-04-04T13:20:52;59421.81;;;-144.16;100.00
9421;BME280;4749;51.398;5.466;2023-04-04T13:23:20;59421.81;;;-144.16;100.00
9421;BME280;4749;51.398;5.466;2023-04-04T13:25:48;59421.81;;;-144.16;100.00
9421;BME280;4749;51.398;5.466;2023-04-04T13:28:16;59421.81;;;-144.16;100.00
9421;BME280;4749;51.398;5.466;2023-04-04T13:30:43;59421.81;;;-144.16;100.00